createdAt,value
2018-06-17T00:00:25.466Z,18.21
2018-06-17T00:01:26.046Z,18.26
2018-06-17T00:02:25.421Z,18.19
2018-06-17T00:03:25.602Z,18.20
2018-06-17T00:04:25.372Z,18.20
2018-06-17T00:05:26.048Z,18.20
2018-06-17T00:06:25.390Z,18.19
2018-06-17T00:07:26.059Z,18.10
2018-06-17T00:08:25.284Z,18.11
2018-06-17T00:09:26.049Z,18.08
2018-06-17T00:10:26.098Z,18.02
2018-06-17T00:11:25.602Z,18.03
2018-06-17T00:12:25.187Z,18.06
2018-06-17T00:13:26.051Z,17.98
2018-06-17T00:14:25.135Z,17.95
2018-06-17T00:15:25.110Z,17.90
2018-06-17T00:16:25.144Z,17.92
2018-06-17T00:17:26.050Z,17.88
2018-06-17T00:18:25.039Z,17.90
2018-06-17T00:19:27.552Z,17.83
2018-06-17T00:20:24.996Z,17.84
2018-06-17T00:21:25.014Z,17.79
2018-06-17T00:22:25.556Z,17.83
2018-06-17T00:23:24.922Z,17.77
2018-06-17T00:24:25.105Z,17.80
2018-06-17T00:25:24.873Z,17.77
2018-06-17T00:26:25.555Z,17.77
2018-06-17T00:27:24.828Z,17.60
2018-06-17T00:28:25.563Z,17.66
2018-06-17T00:29:24.821Z,17.66
2018-06-17T00:30:24.760Z,17.65
2018-06-17T00:31:25.552Z,17.50
2018-06-17T00:32:24.708Z,17.55
2018-06-17T00:33:25.555Z,17.52
2018-06-17T00:34:24.704Z,17.47
2018-06-17T00:35:25.553Z,17.60
2018-06-17T00:36:24.613Z,17.63
2018-06-17T00:37:25.556Z,17.65
2018-06-17T00:38:24.565Z,17.65
2018-06-17T00:39:24.582Z,17.65
2018-06-17T00:40:24.516Z,17.55
2018-06-17T00:41:24.492Z,17.57
2018-06-17T00:42:25.054Z,17.50
2018-06-17T00:43:24.441Z,17.50
2018-06-17T00:44:24.613Z,17.62
2018-06-17T00:45:24.438Z,17.54
2018-06-17T00:46:24.370Z,17.52
2018-06-17T00:47:25.057Z,17.50
2018-06-17T00:48:24.377Z,17.45
2018-06-17T00:49:24.300Z,17.35
2018-06-17T00:50:24.294Z,17.38
2018-06-17T00:51:25.065Z,17.38
2018-06-17T00:52:24.265Z,17.35
2018-06-17T00:53:25.061Z,17.24
2018-06-17T00:54:24.178Z,17.30
2018-06-17T00:55:24.200Z,17.27
2018-06-17T00:56:24.129Z,17.27
2018-06-17T00:57:25.058Z,17.20
2018-06-17T00:58:24.139Z,17.21
2018-06-17T00:59:24.559Z,17.17
2018-06-17T01:00:24.036Z,17.18
2018-06-17T01:01:24.115Z,17.06
2018-06-17T01:02:23.984Z,17.13
2018-06-17T01:03:24.115Z,17.06
2018-06-17T01:04:23.943Z,17.10
2018-06-17T01:05:24.560Z,17.02
2018-06-17T01:06:23.889Z,17.03
2018-06-17T01:07:23.947Z,17.02
2018-06-17T01:08:24.115Z,16.95
2018-06-17T01:09:23.827Z,17.03
2018-06-17T01:10:23.791Z,17.02
2018-06-17T01:11:23.820Z,16.99
2018-06-17T01:12:24.563Z,16.85
2018-06-17T01:13:23.719Z,16.84
2018-06-17T01:14:24.568Z,16.87
2018-06-17T01:15:23.684Z,16.84
2018-06-17T01:16:24.118Z,16.82
2018-06-17T01:17:23.623Z,16.81
2018-06-17T01:18:24.562Z,16.76
2018-06-17T01:19:23.572Z,16.77
2018-06-17T01:20:24.062Z,16.80
2018-06-17T01:21:23.571Z,16.73
2018-06-17T01:22:24.066Z,16.77
2018-06-17T01:23:23.479Z,16.77
2018-06-17T01:24:23.449Z,16.70
2018-06-17T01:25:23.432Z,16.76
2018-06-17T01:26:23.621Z,16.70
2018-06-17T01:27:23.374Z,16.70
2018-06-17T01:28:24.064Z,16.73
2018-06-17T01:29:23.370Z,16.69
2018-06-17T01:30:23.312Z,16.65
2018-06-17T01:31:24.077Z,16.69
2018-06-17T01:32:23.261Z,16.63
2018-06-17T01:33:24.067Z,16.67
2018-06-17T01:34:23.246Z,16.66
2018-06-17T01:35:23.624Z,16.62
2018-06-17T01:36:23.153Z,16.57
2018-06-17T01:37:24.079Z,16.65
2018-06-17T01:38:23.104Z,16.54
2018-06-17T01:39:24.068Z,16.55
2018-06-17T01:40:23.101Z,16.69
2018-06-17T01:41:23.029Z,16.65
2018-06-17T01:42:23.576Z,16.69
2018-06-17T01:43:22.993Z,16.63
2018-06-17T01:44:23.571Z,16.67
2018-06-17T01:45:22.996Z,16.63
2018-06-17T01:46:23.569Z,16.65
2018-06-17T01:47:22.883Z,16.70
2018-06-17T01:48:23.569Z,16.65
2018-06-17T01:49:22.833Z,16.66
2018-06-17T01:50:23.127Z,16.74
2018-06-17T01:51:22.789Z,16.66
2018-06-17T01:52:23.571Z,16.70
2018-06-17T01:53:22.790Z,16.59
2018-06-17T01:54:23.569Z,16.59
2018-06-17T01:55:22.687Z,16.69
2018-06-17T01:56:23.576Z,16.52
2018-06-17T01:57:22.646Z,16.54
2018-06-17T01:58:22.667Z,16.59
2018-06-17T01:59:23.572Z,16.59
2018-06-17T02:00:22.564Z,16.59
2018-06-17T02:01:23.069Z,16.51
2018-06-17T02:02:22.516Z,16.59
2018-06-17T02:03:22.624Z,16.54
2018-06-17T02:04:22.464Z,16.54
2018-06-17T02:05:23.081Z,16.62
2018-06-17T02:06:22.414Z,16.67
2018-06-17T02:07:23.072Z,16.72
2018-06-17T02:08:22.406Z,16.69
2018-06-17T02:09:22.382Z,16.66
2018-06-17T02:10:22.312Z,16.69
2018-06-17T02:11:22.297Z,16.70
2018-06-17T02:12:22.266Z,16.70
2018-06-17T02:13:22.243Z,16.77
2018-06-17T02:14:22.273Z,16.72
2018-06-17T02:15:22.189Z,16.73
2018-06-17T02:16:22.175Z,16.72
2018-06-17T02:17:22.141Z,16.77
2018-06-17T02:18:22.115Z,16.72
2018-06-17T02:19:22.138Z,16.62
2018-06-17T02:20:22.064Z,16.69
2018-06-17T02:21:22.040Z,16.80
2018-06-17T02:22:22.017Z,16.65
2018-06-17T02:23:22.039Z,16.66
2018-06-17T02:24:21.971Z,16.74
2018-06-17T02:25:22.007Z,16.63
2018-06-17T02:26:21.920Z,16.58
2018-06-17T02:27:21.890Z,16.57
2018-06-17T02:28:21.879Z,16.52
2018-06-17T02:29:21.842Z,16.52
2018-06-17T02:30:21.882Z,16.52
2018-06-17T02:31:21.793Z,16.52
2018-06-17T02:32:21.785Z,16.52
2018-06-17T02:33:21.744Z,16.57
2018-06-17T02:34:21.729Z,16.48
2018-06-17T02:35:21.749Z,16.54
2018-06-17T02:36:21.672Z,16.57
2018-06-17T02:37:21.656Z,16.59
2018-06-17T02:38:21.621Z,16.63
2018-06-17T02:39:21.597Z,16.59
2018-06-17T02:40:21.627Z,16.58
2018-06-17T02:41:21.584Z,16.52
2018-06-17T02:42:21.566Z,16.51
2018-06-17T02:43:21.524Z,16.51
2018-06-17T02:44:21.524Z,16.48
2018-06-17T02:45:21.446Z,16.57
2018-06-17T02:46:21.424Z,16.54
2018-06-17T02:47:21.403Z,16.54
2018-06-17T02:48:21.388Z,16.52
2018-06-17T02:49:21.386Z,16.58
2018-06-17T02:50:21.335Z,16.59
2018-06-17T02:51:22.084Z,16.58
2018-06-17T02:52:21.309Z,16.54
2018-06-17T02:53:21.248Z,16.51
2018-06-17T02:54:21.222Z,16.52
2018-06-17T02:55:21.241Z,16.54
2018-06-17T02:56:21.179Z,16.44
2018-06-17T02:57:21.226Z,16.45
2018-06-17T02:58:21.123Z,16.32
2018-06-17T02:59:21.100Z,16.36
2018-06-17T03:00:21.073Z,16.47
2018-06-17T03:01:21.103Z,16.34
2018-06-17T03:02:21.024Z,16.36
2018-06-17T03:03:21.588Z,16.36
2018-06-17T03:04:20.975Z,16.30
2018-06-17T03:05:20.949Z,16.32
2018-06-17T03:06:20.980Z,16.40
2018-06-17T03:07:20.897Z,16.49
2018-06-17T03:08:20.875Z,16.47
2018-06-17T03:09:20.849Z,16.44
2018-06-17T03:10:20.822Z,16.47
2018-06-17T03:11:20.842Z,16.42
2018-06-17T03:12:20.775Z,16.37
2018-06-17T03:13:20.751Z,16.36
2018-06-17T03:14:20.728Z,16.44
2018-06-17T03:15:20.739Z,16.44
2018-06-17T03:16:20.690Z,16.44
2018-06-17T03:17:20.708Z,16.49
2018-06-17T03:18:20.622Z,16.54
2018-06-17T03:19:20.616Z,16.55
2018-06-17T03:20:20.605Z,16.52
2018-06-17T03:21:20.555Z,16.58
2018-06-17T03:22:20.573Z,16.58
2018-06-17T03:23:20.504Z,16.66
2018-06-17T03:24:20.474Z,16.58
2018-06-17T03:25:20.451Z,16.72
2018-06-17T03:26:20.424Z,16.66
2018-06-17T03:27:20.438Z,16.63
2018-06-17T03:28:20.422Z,16.69
2018-06-17T03:29:20.353Z,16.62
2018-06-17T03:30:20.324Z,16.67
2018-06-17T03:31:20.301Z,16.69
2018-06-17T03:32:20.349Z,16.52
2018-06-17T03:33:20.250Z,16.66
2018-06-17T03:34:20.226Z,16.70
2018-06-17T03:35:20.242Z,16.69
2018-06-17T03:36:20.175Z,16.67
2018-06-17T03:37:20.166Z,16.72
2018-06-17T03:38:20.640Z,16.66
2018-06-17T03:39:20.099Z,16.81
2018-06-17T03:40:20.119Z,16.66
2018-06-17T03:41:20.069Z,16.67
2018-06-17T03:42:20.600Z,16.72
2018-06-17T03:43:20.039Z,16.67
2018-06-17T03:44:19.977Z,16.72
2018-06-17T03:45:19.998Z,16.76
2018-06-17T03:46:19.972Z,16.70
2018-06-17T03:47:19.902Z,16.77
2018-06-17T03:48:19.936Z,16.77
2018-06-17T03:49:19.855Z,16.80
2018-06-17T03:50:19.873Z,16.87
2018-06-17T03:51:19.845Z,16.90
2018-06-17T03:52:19.814Z,17.03
2018-06-17T03:53:19.752Z,16.90
2018-06-17T03:54:19.731Z,16.95
2018-06-17T03:55:19.751Z,17.05
2018-06-17T03:56:19.686Z,17.09
2018-06-17T03:57:19.660Z,17.17
2018-06-17T03:58:19.637Z,17.17
2018-06-17T03:59:19.606Z,17.25
2018-06-17T04:00:19.627Z,17.32
2018-06-17T04:01:19.563Z,17.35
2018-06-17T04:02:19.599Z,17.35
2018-06-17T04:03:19.513Z,17.36
2018-06-17T04:04:19.486Z,17.43
2018-06-17T04:05:19.462Z,17.47
2018-06-17T04:06:19.438Z,17.54
2018-06-17T04:07:19.463Z,17.60
2018-06-17T04:08:19.409Z,17.65
2018-06-17T04:09:19.365Z,17.79
2018-06-17T04:10:19.359Z,17.81
2018-06-17T04:11:19.324Z,17.84
2018-06-17T04:12:19.357Z,17.98
2018-06-17T04:13:19.274Z,18.03
2018-06-17T04:14:19.251Z,18.08
2018-06-17T04:15:19.224Z,18.13
2018-06-17T04:16:19.205Z,18.14
2018-06-17T04:17:19.225Z,18.29
2018-06-17T04:18:19.150Z,18.32
2018-06-17T04:19:19.137Z,18.38
2018-06-17T04:20:19.101Z,18.56
2018-06-17T04:21:19.081Z,18.65
2018-06-17T04:22:19.107Z,18.82
2018-06-17T04:23:19.030Z,18.86
2018-06-17T04:24:19.011Z,18.93
2018-06-17T04:25:19.010Z,19.00
2018-06-17T04:26:18.964Z,19.17
2018-06-17T04:27:18.980Z,19.31
2018-06-17T04:28:18.914Z,19.37
2018-06-17T04:29:18.906Z,19.49
2018-06-17T04:30:18.911Z,19.49
2018-06-17T04:31:18.849Z,19.49
2018-06-17T04:32:18.860Z,19.45
2018-06-17T04:33:18.801Z,19.45
2018-06-17T04:34:18.782Z,19.38
2018-06-17T04:35:18.759Z,19.55
2018-06-17T04:36:18.729Z,19.40
2018-06-17T04:37:18.746Z,19.53
2018-06-17T04:38:18.686Z,19.52
2018-06-17T04:39:18.665Z,19.53
2018-06-17T04:40:18.641Z,19.56
2018-06-17T04:41:18.613Z,19.64
2018-06-17T04:42:18.640Z,19.64
2018-06-17T04:43:18.570Z,19.61
2018-06-17T04:44:18.545Z,19.65
2018-06-17T04:45:18.571Z,19.68
2018-06-17T04:46:18.503Z,19.63
2018-06-17T04:47:18.483Z,19.64
2018-06-17T04:48:18.458Z,19.74
2018-06-17T04:49:18.433Z,19.78
2018-06-17T04:50:18.460Z,19.82
2018-06-17T04:51:18.386Z,19.68
2018-06-17T04:52:18.368Z,19.79
2018-06-17T04:53:18.345Z,19.83
2018-06-17T04:54:18.325Z,19.92
2018-06-17T04:55:18.351Z,19.92
2018-06-17T04:56:18.274Z,19.87
2018-06-17T04:57:18.251Z,20.02
2018-06-17T04:58:18.241Z,20.01
2018-06-17T04:59:18.208Z,20.30
2018-06-17T05:00:18.232Z,20.63
2018-06-17T05:01:18.163Z,21.21
2018-06-17T05:02:18.144Z,21.67
2018-06-17T05:03:18.118Z,22.02
2018-06-17T05:04:18.102Z,22.11
2018-06-17T05:05:18.122Z,22.34
2018-06-17T05:06:18.059Z,22.41
2018-06-17T05:07:18.035Z,22.29
2018-06-17T05:08:18.013Z,22.33
2018-06-17T05:09:17.999Z,22.36
2018-06-17T05:10:18.014Z,22.33
2018-06-17T05:11:17.949Z,22.33
2018-06-17T05:12:17.931Z,22.36
2018-06-17T05:13:17.911Z,22.12
2018-06-17T05:14:17.889Z,22.14
2018-06-17T05:15:17.924Z,22.07
2018-06-17T05:16:17.856Z,21.85
2018-06-17T05:17:18.178Z,21.78
2018-06-17T05:18:17.840Z,21.76
2018-06-17T05:19:17.793Z,21.64
2018-06-17T05:20:17.774Z,21.49
2018-06-17T05:21:17.802Z,21.55
2018-06-17T05:22:17.734Z,21.49
2018-06-17T05:23:17.716Z,21.40
2018-06-17T05:24:17.698Z,21.28
2018-06-17T05:25:17.678Z,21.21
2018-06-17T05:26:17.699Z,21.22
2018-06-17T05:27:17.641Z,21.19
2018-06-17T05:28:17.624Z,21.22
2018-06-17T05:29:17.595Z,21.21
2018-06-17T05:30:17.579Z,21.15
2018-06-17T05:31:17.617Z,21.15
2018-06-17T05:32:17.538Z,21.09
2018-06-17T05:33:17.521Z,21.04
2018-06-17T05:34:17.495Z,21.03
2018-06-17T05:35:17.473Z,21.01
2018-06-17T05:36:17.498Z,20.94
2018-06-17T05:37:17.488Z,20.98
2018-06-17T05:38:17.410Z,20.91
2018-06-17T05:39:17.388Z,20.90
2018-06-17T05:40:17.374Z,20.79
2018-06-17T05:41:17.346Z,20.83
2018-06-17T05:42:17.389Z,20.86
2018-06-17T05:43:17.307Z,20.91
2018-06-17T05:44:17.284Z,20.98
2018-06-17T05:45:17.260Z,20.86
2018-06-17T05:46:17.240Z,20.88
2018-06-17T05:47:17.266Z,20.91
2018-06-17T05:48:17.194Z,20.96
2018-06-17T05:49:17.675Z,20.90
2018-06-17T05:50:17.155Z,20.97
2018-06-17T05:51:17.135Z,20.96
2018-06-17T05:52:17.109Z,20.98
2018-06-17T05:53:17.087Z,20.97
2018-06-17T05:54:17.125Z,21.00
2018-06-17T05:55:17.045Z,20.98
2018-06-17T05:56:17.024Z,21.00
2018-06-17T05:57:17.628Z,21.00
2018-06-17T05:58:16.977Z,21.00
2018-06-17T05:59:17.004Z,20.85
2018-06-17T06:00:16.938Z,20.96
2018-06-17T06:01:16.915Z,21.01
2018-06-17T06:02:16.897Z,20.96
2018-06-17T06:03:16.870Z,20.85
2018-06-17T06:04:16.912Z,20.96
2018-06-17T06:05:16.826Z,20.82
2018-06-17T06:06:16.810Z,20.79
2018-06-17T06:07:16.782Z,20.83
2018-06-17T06:08:16.771Z,20.91
2018-06-17T06:09:16.779Z,20.86
2018-06-17T06:10:16.779Z,20.96
2018-06-17T06:11:16.698Z,20.96
2018-06-17T06:12:16.674Z,21.01
2018-06-17T06:13:16.662Z,21.06
2018-06-17T06:14:16.680Z,21.08
2018-06-17T06:15:16.612Z,21.13
2018-06-17T06:16:16.585Z,21.22
2018-06-17T06:17:16.570Z,21.19
2018-06-17T06:18:16.546Z,21.16
2018-06-17T06:19:16.683Z,21.22
2018-06-17T06:20:16.538Z,21.19
2018-06-17T06:21:16.478Z,21.28
2018-06-17T06:22:16.498Z,21.28
2018-06-17T06:23:16.437Z,21.34
2018-06-17T06:24:16.414Z,21.38
2018-06-17T06:25:16.437Z,21.43
2018-06-17T06:26:16.370Z,21.45
2018-06-17T06:27:16.347Z,21.43
2018-06-17T06:28:16.327Z,21.48
2018-06-17T06:29:16.349Z,21.55
2018-06-17T06:30:16.328Z,21.49
2018-06-17T06:31:16.261Z,21.56
2018-06-17T06:32:16.243Z,21.56
2018-06-17T06:33:16.221Z,21.66
2018-06-17T06:34:16.203Z,21.56
2018-06-17T06:35:16.224Z,21.48
2018-06-17T06:36:16.153Z,21.59
2018-06-17T06:37:16.144Z,21.73
2018-06-17T06:38:16.110Z,21.67
2018-06-17T06:39:16.092Z,21.71
2018-06-17T06:40:16.110Z,21.73
2018-06-17T06:41:16.048Z,21.78
2018-06-17T06:42:16.027Z,21.82
2018-06-17T06:43:16.006Z,21.93
2018-06-17T06:44:15.985Z,21.82
2018-06-17T06:45:16.015Z,21.83
2018-06-17T06:46:15.939Z,21.74
2018-06-17T06:47:15.925Z,21.76
2018-06-17T06:48:15.906Z,21.80
2018-06-17T06:49:16.640Z,21.86
2018-06-17T06:50:15.916Z,21.90
2018-06-17T06:51:15.831Z,21.93
2018-06-17T06:52:15.813Z,22.04
2018-06-17T06:53:15.791Z,22.09
2018-06-17T06:54:15.768Z,22.12
2018-06-17T06:55:15.797Z,22.23
2018-06-17T06:56:15.770Z,22.14
2018-06-17T06:57:15.716Z,22.22
2018-06-17T06:58:15.684Z,22.20
2018-06-17T06:59:15.691Z,22.16
2018-06-17T07:00:15.640Z,22.11
2018-06-17T07:01:15.664Z,22.20
2018-06-17T07:02:15.601Z,22.29
2018-06-17T07:03:15.594Z,22.30
2018-06-17T07:04:15.558Z,22.22
2018-06-17T07:05:15.537Z,22.23
2018-06-17T07:06:15.574Z,22.15
2018-06-17T07:07:15.498Z,22.26
2018-06-17T07:08:15.483Z,22.23
2018-06-17T07:09:15.468Z,22.16
2018-06-17T07:10:15.440Z,22.18
2018-06-17T07:11:15.470Z,22.22
2018-06-17T07:12:15.399Z,22.24
2018-06-17T07:13:15.371Z,22.29
2018-06-17T07:14:15.367Z,22.41
2018-06-17T07:15:15.333Z,22.36
2018-06-17T07:16:15.351Z,22.41
2018-06-17T07:17:15.338Z,22.44
2018-06-17T07:18:15.267Z,22.46
2018-06-17T07:19:15.330Z,22.31
2018-06-17T07:20:15.226Z,22.38
2018-06-17T07:21:15.202Z,22.48
2018-06-17T07:22:15.182Z,22.44
2018-06-17T07:23:15.233Z,22.38
2018-06-17T07:24:15.181Z,22.41
2018-06-17T07:25:15.119Z,22.45
2018-06-17T07:26:15.101Z,22.44
2018-06-17T07:27:15.120Z,22.49
2018-06-17T07:28:15.108Z,22.42
2018-06-17T07:29:15.035Z,22.51
2018-06-17T07:30:15.021Z,22.59
2018-06-17T07:31:14.995Z,22.57
2018-06-17T07:32:15.018Z,22.64
2018-06-17T07:33:14.954Z,22.70
2018-06-17T07:34:14.976Z,22.73
2018-06-17T07:35:14.910Z,22.79
2018-06-17T07:36:14.893Z,22.64
2018-06-17T07:37:14.924Z,22.67
2018-06-17T07:38:14.845Z,22.66
2018-06-17T07:39:14.825Z,22.81
2018-06-17T07:40:14.847Z,22.91
2018-06-17T07:41:14.784Z,23.07
2018-06-17T07:42:14.810Z,23.21
2018-06-17T07:43:14.796Z,23.25
2018-06-17T07:44:14.724Z,23.21
2018-06-17T07:45:14.709Z,23.21
2018-06-17T07:46:14.680Z,23.24
2018-06-17T07:47:14.660Z,23.06
2018-06-17T07:48:14.684Z,23.00
2018-06-17T07:49:14.623Z,22.88
2018-06-17T07:50:14.598Z,22.94
2018-06-17T07:51:14.579Z,22.94
2018-06-17T07:52:14.605Z,23.07
2018-06-17T07:53:14.576Z,23.04
2018-06-17T07:54:14.517Z,22.96
2018-06-17T07:55:14.503Z,22.91
2018-06-17T07:56:14.522Z,22.96
2018-06-17T07:57:14.461Z,22.94
2018-06-17T07:58:14.439Z,22.94
2018-06-17T07:59:14.453Z,22.96
2018-06-17T08:00:14.393Z,23.04
2018-06-17T08:01:14.420Z,22.99
2018-06-17T08:02:14.351Z,22.99
2018-06-17T08:03:14.331Z,23.04
2018-06-17T08:04:14.315Z,23.00
2018-06-17T08:05:14.318Z,23.14
2018-06-17T08:06:14.319Z,23.06
2018-06-17T08:07:14.251Z,23.18
2018-06-17T08:08:14.236Z,23.19
2018-06-17T08:09:14.205Z,23.16
2018-06-17T08:10:14.207Z,23.19
2018-06-17T08:11:14.218Z,23.21
2018-06-17T08:12:14.148Z,23.14
2018-06-17T08:13:14.125Z,23.21
2018-06-17T08:14:14.104Z,23.21
2018-06-17T08:15:14.086Z,23.25
2018-06-17T08:16:14.118Z,23.28
2018-06-17T08:17:14.046Z,23.35
2018-06-17T08:18:14.028Z,23.45
2018-06-17T08:19:14.001Z,23.37
2018-06-17T08:20:14.052Z,23.40
2018-06-17T08:21:14.006Z,23.47
2018-06-17T08:22:13.941Z,23.47
2018-06-17T08:23:13.930Z,23.38
2018-06-17T08:24:13.903Z,23.34
2018-06-17T08:25:13.925Z,23.22
2018-06-17T08:26:13.863Z,23.50
2018-06-17T08:27:13.892Z,23.74
2018-06-17T08:28:13.821Z,23.84
2018-06-17T08:29:14.667Z,23.89
2018-06-17T08:30:13.835Z,24.00
2018-06-17T08:31:13.764Z,24.08
2018-06-17T08:32:13.756Z,23.99
2018-06-17T08:33:13.760Z,24.00
2018-06-17T08:34:13.699Z,23.96
2018-06-17T08:35:13.685Z,24.03
2018-06-17T08:36:13.662Z,24.09
2018-06-17T08:37:13.644Z,24.14
2018-06-17T08:38:13.683Z,24.15
2018-06-17T08:39:13.603Z,24.24
2018-06-17T08:40:13.589Z,24.21
2018-06-17T08:41:14.176Z,24.30
2018-06-17T08:42:13.541Z,24.27
2018-06-17T08:43:13.585Z,24.34
2018-06-17T08:44:13.506Z,24.37
2018-06-17T08:45:13.489Z,24.40
2018-06-17T08:46:13.468Z,24.48
2018-06-17T08:47:13.445Z,24.71
2018-06-17T08:48:13.467Z,24.66
2018-06-17T08:49:13.405Z,24.67
2018-06-17T08:50:13.386Z,24.80
2018-06-17T08:51:13.368Z,24.75
2018-06-17T08:52:13.348Z,24.78
2018-06-17T08:53:13.373Z,24.66
2018-06-17T08:54:13.332Z,24.69
2018-06-17T08:55:13.288Z,24.70
2018-06-17T08:56:13.739Z,24.77
2018-06-17T08:57:13.249Z,24.71
2018-06-17T08:58:13.242Z,24.92
2018-06-17T08:59:13.258Z,24.90
2018-06-17T09:00:14.182Z,24.94
2018-06-17T09:01:13.216Z,25.02
2018-06-17T09:02:13.157Z,24.78
2018-06-17T09:03:13.162Z,24.70
2018-06-17T09:04:13.202Z,24.77
2018-06-17T09:05:13.095Z,24.67
2018-06-17T09:06:13.074Z,24.77
2018-06-17T09:07:13.059Z,24.77
2018-06-17T09:08:13.045Z,24.63
2018-06-17T09:09:13.080Z,24.66
2018-06-17T09:10:13.011Z,24.48
2018-06-17T09:11:12.977Z,24.46
2018-06-17T09:12:12.967Z,24.46
2018-06-17T09:13:12.937Z,24.49
2018-06-17T09:14:12.980Z,24.51
2018-06-17T09:15:12.899Z,24.46
2018-06-17T09:16:12.896Z,24.54
2018-06-17T09:17:12.861Z,24.49
2018-06-17T09:18:12.843Z,24.58
2018-06-17T09:19:12.871Z,24.67
2018-06-17T09:20:12.806Z,24.70
2018-06-17T09:21:12.789Z,24.64
2018-06-17T09:22:12.830Z,24.71
2018-06-17T09:23:12.751Z,24.77
2018-06-17T09:24:12.741Z,24.80
2018-06-17T09:25:12.754Z,24.80
2018-06-17T09:26:12.708Z,24.82
2018-06-17T09:27:12.731Z,24.87
2018-06-17T09:28:12.648Z,24.90
2018-06-17T09:29:12.629Z,24.92
2018-06-17T09:30:12.608Z,24.86
2018-06-17T09:31:12.663Z,24.85
2018-06-17T09:32:12.598Z,24.87
2018-06-17T09:33:12.560Z,25.00
2018-06-17T09:34:12.531Z,25.05
2018-06-17T09:35:12.509Z,25.02
2018-06-17T09:36:12.541Z,24.96
2018-06-17T09:37:12.516Z,25.12
2018-06-17T09:38:12.454Z,25.12
2018-06-17T09:39:12.434Z,24.92
2018-06-17T09:40:12.415Z,24.92
2018-06-17T09:41:12.441Z,24.93
2018-06-17T09:42:12.392Z,24.92
2018-06-17T09:43:12.357Z,24.87
2018-06-17T09:44:12.341Z,24.94
2018-06-17T09:45:12.771Z,25.00
2018-06-17T09:46:12.298Z,24.93
2018-06-17T09:47:12.283Z,24.90
2018-06-17T09:48:12.260Z,24.92
2018-06-17T09:49:13.303Z,24.89
2018-06-17T09:50:12.221Z,24.92
2018-06-17T09:51:12.281Z,24.80
2018-06-17T09:52:12.219Z,24.89
2018-06-17T09:53:12.180Z,24.89
2018-06-17T09:54:12.225Z,24.80
2018-06-17T09:55:12.165Z,24.85
2018-06-17T09:56:12.725Z,24.83
2018-06-17T09:57:12.087Z,24.78
2018-06-17T09:58:12.071Z,24.69
2018-06-17T09:59:12.118Z,24.71
2018-06-17T10:00:12.034Z,24.75
2018-06-17T10:01:12.029Z,24.75
2018-06-17T10:02:11.991Z,24.87
2018-06-17T10:03:13.104Z,24.83
2018-06-17T10:04:11.999Z,24.77
2018-06-17T10:05:12.252Z,24.83
2018-06-17T10:06:11.967Z,24.89
2018-06-17T10:07:11.896Z,24.71
2018-06-17T10:08:11.877Z,24.87
2018-06-17T10:09:11.856Z,24.75
2018-06-17T10:10:11.839Z,24.77
2018-06-17T10:11:11.866Z,24.86
2018-06-17T10:12:11.800Z,24.85
2018-06-17T10:13:11.785Z,24.82
2018-06-17T10:14:11.773Z,24.87
2018-06-17T10:15:11.741Z,24.90
2018-06-17T10:16:11.776Z,24.86
2018-06-17T10:17:11.722Z,24.94
2018-06-17T10:18:11.694Z,24.89
2018-06-17T10:19:11.677Z,24.75
2018-06-17T10:20:11.673Z,24.49
2018-06-17T10:21:11.696Z,24.67
2018-06-17T10:22:11.611Z,24.51
2018-06-17T10:23:11.590Z,24.64
2018-06-17T10:24:11.587Z,24.66
2018-06-17T10:25:11.548Z,24.66
2018-06-17T10:26:11.782Z,24.69
2018-06-17T10:27:11.556Z,24.63
2018-06-17T10:28:11.493Z,24.51
2018-06-17T10:29:11.476Z,24.71
2018-06-17T10:30:11.453Z,24.80
2018-06-17T10:31:11.435Z,24.75
2018-06-17T10:32:11.480Z,24.77
2018-06-17T10:33:11.408Z,24.82
2018-06-17T10:34:11.376Z,24.70
2018-06-17T10:35:11.362Z,24.64
2018-06-17T10:36:11.364Z,24.78
2018-06-17T10:37:11.357Z,24.67
2018-06-17T10:38:11.343Z,24.61
2018-06-17T10:39:11.328Z,24.52
2018-06-17T10:40:11.274Z,24.54
2018-06-17T10:41:11.247Z,24.49
2018-06-17T10:42:11.227Z,24.52
2018-06-17T10:43:11.249Z,24.61
2018-06-17T10:44:11.230Z,24.54
2018-06-17T10:45:11.229Z,24.52
2018-06-17T10:46:11.192Z,24.36
2018-06-17T10:47:11.129Z,24.48
2018-06-17T10:48:11.118Z,24.63
2018-06-17T10:49:11.179Z,24.66
2018-06-17T10:50:11.077Z,24.74
2018-06-17T10:51:11.048Z,24.85
2018-06-17T10:52:11.035Z,25.04
2018-06-17T10:53:11.008Z,24.94
2018-06-17T10:54:11.035Z,25.02
2018-06-17T10:55:10.971Z,25.12
2018-06-17T10:56:10.978Z,25.32
2018-06-17T10:57:10.932Z,25.42
2018-06-17T10:58:10.935Z,25.60
2018-06-17T10:59:10.944Z,25.71
2018-06-17T11:00:10.884Z,25.93
2018-06-17T11:01:10.858Z,25.86
2018-06-17T11:02:10.839Z,25.82
2018-06-17T11:03:10.823Z,25.91
2018-06-17T11:04:11.268Z,25.96
2018-06-17T11:05:10.855Z,25.96
2018-06-17T11:06:10.810Z,25.78
2018-06-17T11:07:10.742Z,25.84
2018-06-17T11:08:10.726Z,25.52
2018-06-17T11:09:10.712Z,25.45
2018-06-17T11:10:10.688Z,25.48
2018-06-17T11:11:10.762Z,25.42
2018-06-17T11:12:10.654Z,25.45
2018-06-17T11:13:10.682Z,25.57
2018-06-17T11:14:10.690Z,25.79
2018-06-17T11:15:10.602Z,25.84
2018-06-17T11:16:10.599Z,25.88
2018-06-17T11:17:10.563Z,26.01
2018-06-17T11:18:10.546Z,26.15
2018-06-17T11:19:10.571Z,26.32
2018-06-17T11:20:10.506Z,26.35
2018-06-17T11:21:10.485Z,26.37
2018-06-17T11:22:10.517Z,26.44
2018-06-17T11:23:10.463Z,26.39
2018-06-17T11:24:10.437Z,26.45
2018-06-17T11:25:10.413Z,26.57
2018-06-17T11:26:10.456Z,26.56
2018-06-17T11:27:10.389Z,26.42
2018-06-17T11:28:10.363Z,26.26
2018-06-17T11:29:10.343Z,26.24
2018-06-17T11:30:10.326Z,26.24
2018-06-17T11:31:10.355Z,26.39
2018-06-17T11:32:10.306Z,26.31
2018-06-17T11:33:10.284Z,26.44
2018-06-17T11:34:10.257Z,26.56
2018-06-17T11:35:10.242Z,26.82
2018-06-17T11:36:11.229Z,26.79
2018-06-17T11:37:10.204Z,26.99
2018-06-17T11:38:10.191Z,27.05
2018-06-17T11:39:10.308Z,27.15
2018-06-17T11:40:10.158Z,26.94
2018-06-17T11:41:10.184Z,26.91
2018-06-17T11:42:10.117Z,26.89
2018-06-17T11:43:10.097Z,26.79
2018-06-17T11:44:10.084Z,26.81
2018-06-17T11:45:10.066Z,26.86
2018-06-17T11:46:10.102Z,26.89
2018-06-17T11:47:10.031Z,26.87
2018-06-17T11:48:10.105Z,26.93
2018-06-17T11:49:10.051Z,26.97
2018-06-17T11:50:09.985Z,26.89
2018-06-17T11:51:09.961Z,26.89
2018-06-17T11:52:09.945Z,26.81
2018-06-17T11:53:09.925Z,26.87
2018-06-17T11:54:09.955Z,26.91
2018-06-17T11:55:09.890Z,26.78
2018-06-17T11:56:09.874Z,26.53
2018-06-17T11:57:09.857Z,26.57
2018-06-17T11:58:09.877Z,26.57
2018-06-17T11:59:09.822Z,26.60
2018-06-17T12:00:09.802Z,26.56
2018-06-17T12:01:09.789Z,26.54
2018-06-17T12:02:09.786Z,26.64
2018-06-17T12:03:09.827Z,26.75
2018-06-17T12:04:10.245Z,26.76
2018-06-17T12:05:09.718Z,26.79
2018-06-17T12:06:09.812Z,26.71
2018-06-17T12:07:09.681Z,26.81
2018-06-17T12:08:09.669Z,26.68
2018-06-17T12:09:09.645Z,26.53
2018-06-17T12:10:09.628Z,26.69
2018-06-17T12:11:09.664Z,26.86
2018-06-17T12:12:09.596Z,26.75
2018-06-17T12:13:09.582Z,26.26
2018-06-17T12:14:09.568Z,26.26
2018-06-17T12:15:09.541Z,26.38
2018-06-17T12:16:09.799Z,26.60
2018-06-17T12:17:09.503Z,26.64
2018-06-17T12:18:09.488Z,26.87
2018-06-17T12:19:09.479Z,27.05
2018-06-17T12:20:09.817Z,27.16
2018-06-17T12:21:09.436Z,27.36
2018-06-17T12:22:09.423Z,27.59
2018-06-17T12:23:09.403Z,27.66
2018-06-17T12:24:09.400Z,27.55
2018-06-17T12:25:09.411Z,27.53
2018-06-17T12:26:09.356Z,27.62
2018-06-17T12:27:09.395Z,27.51
2018-06-17T12:28:10.241Z,27.51
2018-06-17T12:29:09.298Z,27.42
2018-06-17T12:30:09.288Z,27.28
2018-06-17T12:31:09.265Z,27.28
2018-06-17T12:32:09.296Z,27.08
2018-06-17T12:33:09.242Z,26.94
2018-06-17T12:34:09.213Z,26.71
2018-06-17T12:35:09.203Z,26.79
2018-06-17T12:36:09.747Z,26.76
2018-06-17T12:37:09.209Z,26.69
2018-06-17T12:38:09.189Z,26.67
2018-06-17T12:39:09.131Z,26.49
2018-06-17T12:40:09.761Z,26.42
2018-06-17T12:41:09.091Z,26.45
2018-06-17T12:42:09.075Z,26.47
2018-06-17T12:43:09.100Z,26.53
2018-06-17T12:44:09.043Z,26.53
2018-06-17T12:45:09.023Z,26.61
2018-06-17T12:46:09.007Z,26.52
2018-06-17T12:47:08.987Z,26.61
2018-06-17T12:48:09.030Z,26.54
2018-06-17T12:49:08.951Z,26.56
2018-06-17T12:50:08.959Z,26.67
2018-06-17T12:51:08.916Z,26.79
2018-06-17T12:52:08.902Z,26.82